Time;durP1;ratioP1;P1;durP2;ratioP2;P2;SDS_P1;SDS_P2;PMS_P1;PMS_P2;Temp;Humidity;BMP_temperature;BMP_pressure;BME280_temperature;BME280_humidity;BME280_pressure;Samples;Min_cycle;Max_cycle;Signal;HPM_P1;HPM_P2
2023/05/04 00:02:09;;;;;;;;;;;6.50;99.90;;;;;;4883894;29;19934;-70
2023/05/04 00:04:35;;;;;;;;;;;6.50;99.90;;;;;;4900198;29;19927;-71
2023/05/04 00:07:00;;;;;;;;;;;6.50;99.90;;;;;;4914675;29;20425;-71
2023/05/04 00:09:26;;;;;;;;;;;6.50;99.90;;;;;;4898491;29;19970;-71
2023/05/04 00:11:51;;;;;;;;;;;6.50;99.90;;;;;;4898677;29;19927;-70
2023/05/04 00:14:17;;;;;;;;;;;6.40;99.90;;;;;;4898550;29;19928;-70
2023/05/04 00:16:43;;;;;;;;;;;6.50;99.90;;;;;;4897979;29;20392;-71
2023/05/04 00:19:08;;;;;;;;;;;6.40;99.90;;;;;;4882692;29;19931;-70
2023/05/04 00:21:34;;;;;;;;;;;6.40;99.90;;;;;;4898945;29;20279;-70
2023/05/04 00:24:01;;;;;;;;;;;6.40;99.90;;;;;;4898177;29;19927;-70
2023/05/04 00:26:26;;;;;;;;;;;6.40;99.90;;;;;;4913694;29;19950;-72
2023/05/04 00:28:52;;;;;;;;;;;6.40;99.90;;;;;;4899301;29;20367;-70
2023/05/04 00:31:18;;;;;;;;;;;6.40;99.90;;;;;;4899320;29;20018;-70
2023/05/04 00:33:44;;;;;;;;;;;6.40;99.90;;;;;;4897774;29;19928;-70
2023/05/04 00:36:10;;;;;;;;;;;6.40;99.90;;;;;;4899242;29;19944;-70
2023/05/04 00:38:50;;;;;;;;;;;6.30;99.90;;;;;;4897472;29;19975;-71
2023/05/04 00:41:16;;;;;;;;;;;6.30;99.90;;;;;;4913797;29;19927;-70
2023/05/04 00:43:42;;;;;;;;;;;6.30;99.90;;;;;;4913606;29;19927;-71
2023/05/04 00:46:09;;;;;;;;;;;6.30;99.90;;;;;;4899192;29;19941;-70
2023/05/04 00:48:35;;;;;;;;;;;6.30;99.90;;;;;;4897275;29;19935;-71
2023/05/04 00:51:01;;;;;;;;;;;6.30;99.90;;;;;;4881935;29;19934;-70
2023/05/04 00:53:27;;;;;;;;;;;6.30;99.90;;;;;;4882160;29;19994;-70
2023/05/04 00:55:52;;;;;;;;;;;6.30;99.90;;;;;;4897168;29;19927;-70
2023/05/04 00:58:18;;;;;;;;;;;6.30;99.90;;;;;;4898563;29;19931;-70
2023/05/04 01:00:43;;;;;;;;;;;6.30;99.90;;;;;;4897253;29;20366;-70
2023/05/04 01:03:09;;;;;;;;;;;6.20;99.90;;;;;;4898377;29;20030;-70
2023/05/04 01:05:41;;;;;;;;;;;6.20;99.90;;;;;;4897109;29;19935;-70
2023/05/04 01:08:08;;;;;;;;;;;6.20;99.90;;;;;;4881864;29;19928;-70
2023/05/04 01:10:42;;;;;;;;;;;6.20;99.90;;;;;;4898016;29;20018;-72
2023/05/04 01:13:09;;;;;;;;;;;6.20;99.90;;;;;;4913128;29;20018;-70
2023/05/04 01:15:35;;;;;;;;;;;6.20;99.90;;;;;;4897863;29;20350;-70
2023/05/04 01:18:01;;;;;;;;;;;6.20;99.90;;;;;;4913022;29;19982;-71
2023/05/04 01:20:27;;;;;;;;;;;6.20;99.90;;;;;;4898194;29;19927;-70
2023/05/04 01:22:53;;;;;;;;;;;6.20;99.90;;;;;;4898093;29;20489;-70
2023/05/04 01:25:18;;;;;;;;;;;6.20;99.90;;;;;;4913523;29;19931;-70
2023/05/04 01:27:44;;;;;;;;;;;6.10;99.90;;;;;;4912427;29;19935;-70
2023/05/04 01:30:13;;;;;;;;;;;6.10;99.90;;;;;;4898102;29;19935;-70
2023/05/04 01:32:40;;;;;;;;;;;6.10;99.90;;;;;;4881022;29;20344;-70
2023/05/04 01:35:06;;;;;;;;;;;6.10;99.90;;;;;;4896985;29;20370;-70
2023/05/04 01:37:32;;;;;;;;;;;6.10;99.90;;;;;;4896724;29;20290;-70
2023/05/04 01:39:57;;;;;;;;;;;6.10;99.90;;;;;;4912029;29;19931;-70
2023/05/04 01:42:23;;;;;;;;;;;6.10;99.90;;;;;;4881228;29;19967;-70
2023/05/04 01:44:49;;;;;;;;;;;6.10;99.90;;;;;;4895974;29;19931;-70
2023/05/04 01:47:14;;;;;;;;;;;6.10;99.90;;;;;;4912354;29;19927;-70
2023/05/04 01:49:40;;;;;;;;;;;6.00;99.90;;;;;;4912204;29;19928;-70
2023/05/04 01:52:05;;;;;;;;;;;6.00;99.90;;;;;;4896215;29;19927;-70
2023/05/04 01:54:31;;;;;;;;;;;6.00;99.90;;;;;;4896278;29;19943;-69
2023/05/04 01:56:57;;;;;;;;;;;5.90;99.90;;;;;;4911762;29;19932;-69
2023/05/04 01:59:22;;;;;;;;;;;6.00;99.90;;;;;;4897797;29;20026;-70
2023/05/04 02:01:48;;;;;;;;;;;5.90;99.90;;;;;;4896268;29;19932;-70
2023/05/04 02:04:13;;;;;;;;;;;5.90;99.90;;;;;;4896603;29;20388;-71
2023/05/04 02:06:39;;;;;;;;;;;5.90;99.90;;;;;;4896573;29;19983;-69
2023/05/04 02:09:04;;;;;;;;;;;5.90;99.90;;;;;;4897157;29;19934;-70
2023/05/04 02:11:30;;;;;;;;;;;5.90;99.90;;;;;;4896399;29;19927;-70
2023/05/04 02:13:56;;;;;;;;;;;5.90;99.90;;;;;;4911987;29;19990;-69
2023/05/04 02:16:21;;;;;;;;;;;5.80;99.90;;;;;;4912032;29;19967;-69
2023/05/04 02:18:47;;;;;;;;;;;5.90;99.90;;;;;;4895827;29;19974;-70
2023/05/04 02:21:12;;;;;;;;;;;5.90;99.90;;;;;;4897650;29;20301;-70
2023/05/04 02:23:38;;;;;;;;;;;5.90;99.90;;;;;;4880630;29;19931;-70
2023/05/04 02:26:04;;;;;;;;;;;5.80;99.90;;;;;;4895929;29;19924;-71
2023/05/04 02:28:29;;;;;;;;;;;5.80;99.90;;;;;;4897302;29;19999;-71
2023/05/04 02:30:55;;;;;;;;;;;5.90;99.90;;;;;;4911449;29;19966;-70
2023/05/04 02:33:20;;;;;;;;;;;5.80;99.90;;;;;;4896409;29;19934;-70
2023/05/04 02:35:46;;;;;;;;;;;5.80;99.90;;;;;;4911650;29;19927;-70
2023/05/04 02:38:11;;;;;;;;;;;5.80;99.90;;;;;;4896023;29;19987;-70
2023/05/04 02:40:37;;;;;;;;;;;5.80;99.90;;;;;;4880360;29;19934;-70
2023/05/04 02:43:02;;;;;;;;;;;5.80;99.90;;;;;;4911561;29;20429;-70
2023/05/04 02:45:28;;;;;;;;;;;5.80;99.90;;;;;;4897792;29;20526;-70
2023/05/04 02:47:53;;;;;;;;;;;5.80;99.90;;;;;;4911856;29;19962;-70
2023/05/04 02:50:19;;;;;;;;;;;5.80;99.90;;;;;;4896236;29;19979;-70
2023/05/04 02:52:45;;;;;;;;;;;5.80;99.90;;;;;;4896060;29;19934;-69
2023/05/04 02:55:10;;;;;;;;;;;5.80;99.90;;;;;;4895865;29;19967;-69
2023/05/04 02:57:36;;;;;;;;;;;5.80;99.90;;;;;;4895963;29;19934;-70
2023/05/04 03:00:03;;;;;;;;;;;5.80;99.90;;;;;;4896510;29;20397;-70
2023/05/04 03:02:28;;;;;;;;;;;5.80;99.90;;;;;;4896010;29;19935;-71
2023/05/04 03:04:54;;;;;;;;;;;5.80;99.90;;;;;;4896586;29;20501;-71
2023/05/04 03:07:20;;;;;;;;;;;5.70;99.90;;;;;;4897149;29;19935;-69
2023/05/04 03:09:45;;;;;;;;;;;5.70;99.90;;;;;;4880485;29;19928;-70
2023/05/04 03:12:11;;;;;;;;;;;5.70;99.90;;;;;;4911611;29;20010;-69
2023/05/04 03:14:37;;;;;;;;;;;5.70;99.90;;;;;;4896858;29;19934;-69
2023/05/04 03:17:02;;;;;;;;;;;5.70;99.90;;;;;;4896692;29;19932;-69
2023/05/04 03:19:28;;;;;;;;;;;5.70;99.90;;;;;;4879983;29;19935;-69
2023/05/04 03:21:54;;;;;;;;;;;5.70;99.90;;;;;;4897107;29;20286;-70
2023/05/04 03:24:20;;;;;;;;;;;5.70;99.90;;;;;;4880090;29;19927;-70
2023/05/04 03:26:46;;;;;;;;;;;5.70;99.90;;;;;;4895966;29;20018;-69
2023/05/04 03:29:12;;;;;;;;;;;5.70;99.90;;;;;;4897896;29;20014;-70
2023/05/04 03:31:37;;;;;;;;;;;5.60;99.90;;;;;;4900091;29;19927;-70
2023/05/04 03:34:03;;;;;;;;;;;5.60;99.90;;;;;;4883066;29;19934;-71
2023/05/04 03:36:29;;;;;;;;;;;5.60;99.90;;;;;;4898993;29;19939;-70
2023/05/04 03:38:55;;;;;;;;;;;5.60;99.90;;;;;;4883473;29;20029;-69
2023/05/04 03:41:20;;;;;;;;;;;5.60;99.90;;;;;;4898860;29;19979;-70
2023/05/04 03:43:46;;;;;;;;;;;5.60;99.90;;;;;;4899295;29;19950;-69
2023/05/04 03:46:11;;;;;;;;;;;5.60;99.90;;;;;;4897948;29;20032;-69
2023/05/04 03:48:37;;;;;;;;;;;5.60;99.90;;;;;;4914686;29;19927;-70
2023/05/04 03:51:03;;;;;;;;;;;5.60;99.90;;;;;;4899291;29;19927;-69
2023/05/04 03:53:29;;;;;;;;;;;5.60;99.90;;;;;;4914711;29;20369;-69
2023/05/04 03:55:54;;;;;;;;;;;5.60;99.90;;;;;;4883306;29;20254;-70
2023/05/04 03:58:20;;;;;;;;;;;5.60;99.90;;;;;;4914066;29;19928;-69
2023/05/04 04:00:46;;;;;;;;;;;5.70;99.90;;;;;;4899568;29;19983;-70
2023/05/04 04:03:11;;;;;;;;;;;5.60;99.90;;;;;;4898001;29;19938;-70
2023/05/04 04:05:37;;;;;;;;;;;5.70;99.90;;;;;;4898279;29;19927;-70
2023/05/04 04:08:02;;;;;;;;;;;5.70;99.90;;;;;;4898081;29;19983;-70
2023/05/04 04:10:29;;;;;;;;;;;5.70;99.90;;;;;;4898280;29;19931;-70
2023/05/04 04:12:55;;;;;;;;;;;5.70;99.90;;;;;;4898447;29;19928;-70
2023/05/04 04:15:20;;;;;;;;;;;5.70;99.90;;;;;;4898048;29;19973;-70
2023/05/04 04:17:46;;;;;;;;;;;5.70;99.90;;;;;;4899278;29;19928;-70
2023/05/04 04:20:12;;;;;;;;;;;5.80;99.90;;;;;;4913492;29;19967;-69
2023/05/04 04:22:38;;;;;;;;;;;5.80;99.90;;;;;;4882498;29;20198;-70
2023/05/04 04:25:04;;;;;;;;;;;5.80;99.90;;;;;;4898865;29;20025;-73
2023/05/04 04:27:29;;;;;;;;;;;5.80;99.90;;;;;;4882443;29;19927;-69
2023/05/04 04:29:56;;;;;;;;;;;5.80;99.90;;;;;;4882597;29;19927;-70
2023/05/04 04:32:21;;;;;;;;;;;5.80;99.90;;;;;;4881954;29;19927;-70
2023/05/04 04:34:47;;;;;;;;;;;5.80;99.90;;;;;;4899052;29;19928;-69
2023/05/04 04:37:12;;;;;;;;;;;5.80;99.90;;;;;;4898540;29;19954;-70
2023/05/04 04:39:39;;;;;;;;;;;5.90;99.90;;;;;;4866191;29;19970;-71
2023/05/04 04:42:04;;;;;;;;;;;5.90;99.90;;;;;;4898145;29;19927;-70
2023/05/04 04:44:30;;;;;;;;;;;5.90;99.90;;;;;;4897658;29;19928;-70
2023/05/04 04:46:55;;;;;;;;;;;5.90;99.90;;;;;;4898938;29;20454;-70
2023/05/04 04:49:21;;;;;;;;;;;6.00;99.90;;;;;;4913177;29;20330;-70
2023/05/04 04:51:47;;;;;;;;;;;5.90;99.90;;;;;;4897260;29;19928;-70
2023/05/04 04:54:13;;;;;;;;;;;6.00;99.90;;;;;;4897057;29;19927;-70
2023/05/04 04:56:43;;;;;;;;;;;6.00;99.90;;;;;;4913190;29;19932;-69
2023/05/04 04:59:09;;;;;;;;;;;6.00;99.90;;;;;;4897019;29;19931;-71
2023/05/04 05:01:35;;;;;;;;;;;6.00;99.90;;;;;;4881820;29;20285;-70
2023/05/04 05:04:00;;;;;;;;;;;6.10;99.90;;;;;;4898560;29;19928;-70
2023/05/04 05:06:26;;;;;;;;;;;6.10;99.90;;;;;;4912839;29;19934;-70
2023/05/04 05:08:52;;;;;;;;;;;6.20;99.90;;;;;;4898340;29;20396;-70
2023/05/04 05:11:17;;;;;;;;;;;6.20;99.90;;;;;;4881586;29;19935;-70
2023/05/04 05:13:43;;;;;;;;;;;6.20;99.90;;;;;;4897148;29;19935;-70
2023/05/04 05:16:08;;;;;;;;;;;6.30;99.90;;;;;;4896998;29;19970;-70
2023/05/04 05:18:34;;;;;;;;;;;6.40;99.90;;;;;;4896569;29;20293;-70
2023/05/04 05:20:59;;;;;;;;;;;6.40;99.90;;;;;;4896832;29;19927;-71
2023/05/04 05:23:25;;;;;;;;;;;6.50;99.90;;;;;;4897591;29;19927;-69
2023/05/04 05:25:51;;;;;;;;;;;6.60;99.90;;;;;;4896481;29;19927;-69
2023/05/04 05:28:16;;;;;;;;;;;6.60;99.90;;;;;;4913316;29;20281;-70
2023/05/04 05:30:42;;;;;;;;;;;6.60;99.90;;;;;;4898760;29;20014;-69
2023/05/04 05:33:09;;;;;;;;;;;6.70;99.90;;;;;;4896793;29;19931;-70
2023/05/04 05:35:34;;;;;;;;;;;6.70;99.90;;;;;;4881104;29;19927;-71
2023/05/04 05:38:00;;;;;;;;;;;6.80;99.90;;;;;;4896849;29;20338;-69
2023/05/04 05:40:26;;;;;;;;;;;6.90;99.90;;;;;;4880587;29;19975;-71
2023/05/04 05:42:52;;;;;;;;;;;6.90;99.90;;;;;;4896679;29;20382;-70
2023/05/04 05:45:18;;;;;;;;;;;7.00;99.90;;;;;;4896352;29;19978;-70
2023/05/04 05:47:43;;;;;;;;;;;7.20;99.90;;;;;;4896275;29;19947;-69
2023/05/04 05:50:09;;;;;;;;;;;7.30;99.90;;;;;;4912369;29;19927;-70
2023/05/04 05:52:35;;;;;;;;;;;7.50;99.90;;;;;;4879806;29;20491;-69
2023/05/04 05:55:00;;;;;;;;;;;7.70;99.90;;;;;;4897535;29;19928;-70
2023/05/04 05:57:26;;;;;;;;;;;7.90;99.90;;;;;;4897079;29;19927;-69
2023/05/04 05:59:51;;;;;;;;;;;8.20;99.90;;;;;;4880324;29;19934;-70
2023/05/04 06:02:17;;;;;;;;;;;8.30;99.90;;;;;;4911581;29;19939;-76
2023/05/04 06:04:43;;;;;;;;;;;8.70;99.90;;;;;;4896456;29;19983;-70
2023/05/04 06:07:09;;;;;;;;;;;9.00;99.90;;;;;;4880745;29;19927;-70
2023/05/04 06:09:35;;;;;;;;;;;9.10;99.90;;;;;;4896057;29;20424;-69
2023/05/04 06:12:01;;;;;;;;;;;9.40;99.90;;;;;;4897066;29;19935;-69
2023/05/04 06:14:26;;;;;;;;;;;9.80;99.90;;;;;;4895904;29;20026;-70
2023/05/04 06:16:52;;;;;;;;;;;10.00;99.90;;;;;;4912241;29;19928;-69
2023/05/04 06:19:17;;;;;;;;;;;10.20;99.90;;;;;;4879961;29;19932;-70
2023/05/04 06:21:43;;;;;;;;;;;10.60;99.90;;;;;;4896516;29;20018;-70
2023/05/04 06:24:09;;;;;;;;;;;11.10;99.90;;;;;;4865294;29;19928;-70
2023/05/04 06:26:34;;;;;;;;;;;11.40;99.90;;;;;;4911786;29;19931;-69
2023/05/04 06:29:00;;;;;;;;;;;11.80;99.90;;;;;;4896095;29;19928;-68
2023/05/04 06:31:25;;;;;;;;;;;12.00;99.90;;;;;;4897130;29;19927;-71
2023/05/04 06:33:51;;;;;;;;;;;12.40;99.90;;;;;;4912354;29;19971;-70
2023/05/04 06:36:17;;;;;;;;;;;12.60;99.90;;;;;;4880693;29;19927;-70
2023/05/04 06:38:42;;;;;;;;;;;12.60;99.90;;;;;;4896894;29;20142;-69
2023/05/04 06:41:08;;;;;;;;;;;12.80;99.90;;;;;;4880502;29;20433;-70
2023/05/04 06:43:33;;;;;;;;;;;12.80;99.90;;;;;;4911686;29;19935;-70
2023/05/04 06:46:02;;;;;;;;;;;12.90;99.90;;;;;;4911892;29;20370;-69
2023/05/04 06:48:28;;;;;;;;;;;13.00;99.90;;;;;;4896870;29;19927;-70
2023/05/04 06:50:54;;;;;;;;;;;13.10;99.90;;;;;;4865246;29;19927;-70
2023/05/04 06:53:20;;;;;;;;;;;13.30;99.90;;;;;;4897502;29;19927;-70
2023/05/04 06:55:46;;;;;;;;;;;13.40;99.90;;;;;;4911519;29;19928;-71
2023/05/04 06:58:11;;;;;;;;;;;13.50;99.90;;;;;;4895876;29;19934;-69
2023/05/04 07:00:37;;;;;;;;;;;13.70;99.90;;;;;;4911112;29;19938;-69
2023/05/04 07:03:02;;;;;;;;;;;13.80;99.90;;;;;;4880383;29;19931;-66
2023/05/04 07:05:28;;;;;;;;;;;14.00;99.90;;;;;;4867921;29;19974;-66
2023/05/04 07:07:54;;;;;;;;;;;14.10;99.90;;;;;;4915004;29;19928;-68
2023/05/04 07:10:19;;;;;;;;;;;14.20;99.90;;;;;;4883981;29;20382;-67
2023/05/04 07:12:45;;;;;;;;;;;14.30;99.90;;;;;;4867401;29;20428;-66
2023/05/04 07:15:11;;;;;;;;;;;14.50;99.90;;;;;;4900315;29;19928;-68
2023/05/04 07:17:37;;;;;;;;;;;15.00;99.90;;;;;;4898643;29;19927;-67
2023/05/04 07:20:03;;;;;;;;;;;15.50;99.90;;;;;;4914143;29;19927;-68
2023/05/04 07:22:30;;;;;;;;;;;15.80;99.90;;;;;;4899518;29;19946;-68
2023/05/04 07:24:59;;;;;;;;;;;15.80;99.90;;;;;;4914956;29;20271;-68
2023/05/04 07:27:25;;;;;;;;;;;15.90;99.90;;;;;;4899202;29;20334;-69
2023/05/04 07:29:50;;;;;;;;;;;15.80;99.90;;;;;;4899935;29;19928;-69
2023/05/04 07:32:16;;;;;;;;;;;15.70;99.90;;;;;;4899083;29;19927;-69
2023/05/04 07:34:45;;;;;;;;;;;15.60;99.90;;;;;;4899762;29;19932;-68
2023/05/04 07:37:11;;;;;;;;;;;15.30;99.90;;;;;;4898977;29;19928;-70
2023/05/04 07:39:37;;;;;;;;;;;15.40;99.90;;;;;;4883029;29;20001;-69
2023/05/04 07:42:03;;;;;;;;;;;15.40;99.90;;;;;;4883434;29;19928;-69
2023/05/04 07:44:31;;;;;;;;;;;15.20;99.90;;;;;;4898852;29;20320;-69
2023/05/04 07:46:57;;;;;;;;;;;15.10;99.90;;;;;;4899865;29;19975;-68
2023/05/04 07:49:22;;;;;;;;;;;14.90;99.90;;;;;;4883330;29;19928;-68
2023/05/04 07:51:48;;;;;;;;;;;14.80;99.90;;;;;;4899415;29;19946;-68
2023/05/04 07:54:14;;;;;;;;;;;14.60;99.90;;;;;;4898520;29;19935;-69
2023/05/04 07:56:39;;;;;;;;;;;14.90;99.90;;;;;;4899521;29;20049;-68
2023/05/04 07:59:05;;;;;;;;;;;14.70;99.90;;;;;;4899774;29;19978;-68
2023/05/04 08:01:31;;;;;;;;;;;15.00;99.90;;;;;;4898903;29;19970;-69
2023/05/04 08:03:56;;;;;;;;;;;15.40;99.90;;;;;;4897929;29;20026;-69
2023/05/04 08:06:22;;;;;;;;;;;15.60;99.90;;;;;;4914141;29;19935;-68
2023/05/04 08:08:48;;;;;;;;;;;15.90;99.90;;;;;;4898587;29;19958;-68
2023/05/04 08:11:14;;;;;;;;;;;16.00;99.90;;;;;;4898656;29;19928;-68
2023/05/04 08:13:40;;;;;;;;;;;16.00;99.90;;;;;;4898572;29;20326;-67
2023/05/04 08:16:08;;;;;;;;;;;16.10;99.90;;;;;;4898303;29;20007;-68
2023/05/04 08:18:33;;;;;;;;;;;16.30;99.90;;;;;;4882928;29;20301;-68
2023/05/04 08:20:59;;;;;;;;;;;16.50;99.80;;;;;;4899136;29;19928;-67
2023/05/04 08:23:24;;;;;;;;;;;16.40;99.90;;;;;;4898493;29;19927;-68
2023/05/04 08:25:51;;;;;;;;;;;16.40;99.90;;;;;;4897588;29;19934;-67
2023/05/04 08:28:17;;;;;;;;;;;16.30;99.90;;;;;;4899219;29;19927;-66
2023/05/04 08:30:42;;;;;;;;;;;16.20;99.90;;;;;;4898587;29;19928;-66
2023/05/04 08:33:08;;;;;;;;;;;16.30;99.90;;;;;;4897409;29;20293;-65
2023/05/04 08:35:34;;;;;;;;;;;16.70;99.90;;;;;;4898577;29;19927;-68
2023/05/04 08:38:00;;;;;;;;;;;16.80;99.80;;;;;;4897235;29;19927;-68
2023/05/04 08:40:26;;;;;;;;;;;16.70;99.90;;;;;;4897657;29;19927;-67
2023/05/04 08:42:51;;;;;;;;;;;16.80;99.90;;;;;;4898623;29;19998;-67
2023/05/04 08:45:17;;;;;;;;;;;16.70;99.90;;;;;;4897662;29;19928;-67
2023/05/04 08:47:43;;;;;;;;;;;16.80;99.90;;;;;;4913247;29;19928;-68
2023/05/04 08:50:10;;;;;;;;;;;16.70;99.90;;;;;;4897216;29;19927;-68
2023/05/04 08:52:36;;;;;;;;;;;16.70;99.90;;;;;;4896119;29;19930;-67
2023/05/04 08:55:03;;;;;;;;;;;16.70;99.90;;;;;;4880336;29;19928;-66
2023/05/04 08:57:29;;;;;;;;;;;16.80;99.90;;;;;;4894858;29;20390;-68
2023/05/04 08:59:55;;;;;;;;;;;16.70;99.90;;;;;;4894174;29;20038;-67
2023/05/04 09:02:22;;;;;;;;;;;16.70;99.50;;;;;;4896877;29;19923;-67
2023/05/04 09:04:49;;;;;;;;;;;16.90;99.90;;;;;;4897340;29;20013;-68
2023/05/04 09:07:16;;;;;;;;;;;17.20;99.70;;;;;;4881191;29;20014;-69
2023/05/04 09:09:41;;;;;;;;;;;17.40;99.70;;;;;;4896053;29;19927;-69
2023/05/04 09:12:07;;;;;;;;;;;17.70;99.90;;;;;;4897841;29;19934;-68
2023/05/04 09:14:34;;;;;;;;;;;17.90;98.80;;;;;;4897527;29;19987;-67
2023/05/04 09:17:00;;;;;;;;;;;18.20;99.40;;;;;;4897490;29;19927;-66
2023/05/04 09:19:32;;;;;;;;;;;18.20;98.90;;;;;;4896486;29;20046;-68
2023/05/04 09:22:01;;;;;;;;;;;18.30;99.50;;;;;;4896831;29;19975;-68
2023/05/04 09:24:28;;;;;;;;;;;18.50;98.30;;;;;;4882116;29;19950;-67
2023/05/04 09:26:53;;;;;;;;;;;18.60;98.70;;;;;;4896573;29;19927;-66
2023/05/04 09:29:20;;;;;;;;;;;18.50;98.50;;;;;;4897998;29;20066;-66
2023/05/04 09:31:47;;;;;;;;;;;18.60;97.90;;;;;;4897446;29;19928;-68
2023/05/04 09:34:13;;;;;;;;;;;19.00;98.70;;;;;;4881180;29;19934;-68
2023/05/04 09:36:40;;;;;;;;;;;19.00;97.30;;;;;;4880739;29;19950;-68
2023/05/04 09:39:09;;;;;;;;;;;18.90;96.70;;;;;;4897669;29;19927;-69
2023/05/04 09:41:35;;;;;;;;;;;18.60;97.50;;;;;;4912524;29;19927;-68
2023/05/04 09:44:02;;;;;;;;;;;18.30;97.70;;;;;;4897321;29;19935;-69
2023/05/04 09:46:28;;;;;;;;;;;18.10;97.60;;;;;;4896657;29;19927;-70
2023/05/04 09:48:55;;;;;;;;;;;18.00;97.40;;;;;;4880183;29;19927;-67
2023/05/04 09:51:22;;;;;;;;;;;17.80;97.70;;;;;;4880911;29;19970;-66
2023/05/04 09:53:51;;;;;;;;;;;17.60;97.70;;;;;;4896172;29;19934;-67
2023/05/04 09:56:24;;;;;;;;;;;17.50;97.90;;;;;;4912405;29;19979;-69
2023/05/04 09:58:49;;;;;;;;;;;17.40;97.80;;;;;;4896147;29;20261;-68
2023/05/04 10:01:15;;;;;;;;;;;17.40;98.10;;;;;;4897614;29;20010;-68
2023/05/04 10:03:42;;;;;;;;;;;17.40;98.00;;;;;;4897664;29;19950;-67
2023/05/04 10:06:09;;;;;;;;;;;17.30;98.00;;;;;;4896396;29;20239;-67
2023/05/04 10:08:35;;;;;;;;;;;17.30;98.20;;;;;;4912144;29;20346;-67
2023/05/04 10:11:01;;;;;;;;;;;17.30;98.30;;;;;;4896011;29;19927;-67
2023/05/04 10:13:27;;;;;;;;;;;17.30;98.30;;;;;;4897351;29;20453;-68
2023/05/04 10:15:52;;;;;;;;;;;17.40;97.90;;;;;;4896184;29;20019;-68
2023/05/04 10:18:32;;;;;;;;;;;17.50;98.30;;;;;;4896320;29;19938;-67
2023/05/04 10:21:06;;;;;;;;;;;17.50;97.90;;;;;;4896303;29;19927;-67
2023/05/04 10:23:53;;;;;;;;;;;17.30;98.20;;;;;;4896548;29;20328;-67
2023/05/04 10:26:22;;;;;;;;;;;17.30;98.40;;;;;;4897552;29;19931;-68
2023/05/04 10:28:47;;;;;;;;;;;17.40;98.40;;;;;;4897196;29;19983;-65
2023/05/04 10:31:13;;;;;;;;;;;17.50;98.50;;;;;;4896754;29;20147;-67
2023/05/04 10:33:39;;;;;;;;;;;17.40;98.20;;;;;;4896072;29;19938;-66
2023/05/04 10:36:05;;;;;;;;;;;17.30;98.40;;;;;;4896977;29;19927;-69
2023/05/04 10:38:32;;;;;;;;;;;17.40;98.50;;;;;;4899252;29;19975;-68
2023/05/04 10:40:57;;;;;;;;;;;17.40;98.50;;;;;;4900755;29;19934;-66
2023/05/04 10:43:23;;;;;;;;;;;17.40;98.70;;;;;;4901002;29;19928;-67
2023/05/04 10:45:48;;;;;;;;;;;17.50;98.50;;;;;;4901039;29;20321;-66
2023/05/04 10:48:14;;;;;;;;;;;17.60;98.50;;;;;;4900663;29;20298;-67
2023/05/04 10:50:48;;;;;;;;;;;17.70;98.20;;;;;;4899873;29;19927;-68
2023/05/04 10:53:14;;;;;;;;;;;17.70;98.30;;;;;;4900570;29;19950;-67
2023/05/04 10:55:43;;;;;;;;;;;17.70;98.10;;;;;;4900031;29;20079;-69
2023/05/04 10:58:13;;;;;;;;;;;17.60;98.40;;;;;;4900414;29;20342;-66
2023/05/04 11:00:40;;;;;;;;;;;17.60;98.10;;;;;;4900006;29;19928;-67
2023/05/04 11:03:06;;;;;;;;;;;17.70;98.30;;;;;;4900166;29;19927;-67
2023/05/04 11:05:39;;;;;;;;;;;17.60;98.30;;;;;;4900655;29;19934;-69
2023/05/04 11:08:24;;;;;;;;;;;17.60;98.70;;;;;;4899372;29;20353;-68
2023/05/04 11:11:02;;;;;;;;;;;17.70;98.40;;;;;;4900641;29;20293;-68
2023/05/04 11:13:28;;;;;;;;;;;17.70;98.30;;;;;;4900520;29;19934;-68
2023/05/04 11:15:54;;;;;;;;;;;17.70;97.50;;;;;;4900490;29;20409;-69
2023/05/04 11:18:30;;;;;;;;;;;17.70;97.70;;;;;;4900130;29;20064;-69
2023/05/04 11:20:56;;;;;;;;;;;17.80;97.20;;;;;;4900503;29;19990;-67
2023/05/04 11:23:22;;;;;;;;;;;17.80;96.90;;;;;;4899058;29;20073;-68
2023/05/04 11:25:47;;;;;;;;;;;17.80;97.40;;;;;;4899238;29;20382;-69
2023/05/04 11:28:13;;;;;;;;;;;17.90;97.50;;;;;;4900008;29;19935;-67
2023/05/04 11:30:40;;;;;;;;;;;18.00;97.10;;;;;;4899148;29;20018;-69
2023/05/04 11:33:13;;;;;;;;;;;18.10;97.00;;;;;;4898716;29;20294;-68
2023/05/04 11:35:39;;;;;;;;;;;18.10;96.80;;;;;;4899964;29;19931;-69
2023/05/04 11:38:06;;;;;;;;;;;18.10;96.80;;;;;;4899961;29;19927;-67
2023/05/04 11:40:31;;;;;;;;;;;18.10;96.40;;;;;;4900155;29;20356;-68
2023/05/04 11:42:58;;;;;;;;;;;18.10;96.80;;;;;;4898819;29;20026;-69
2023/05/04 11:45:25;;;;;;;;;;;18.00;96.40;;;;;;4898469;29;19927;-66
2023/05/04 11:47:52;;;;;;;;;;;18.00;96.60;;;;;;4899863;29;19927;-68
2023/05/04 11:50:19;;;;;;;;;;;18.10;96.40;;;;;;4898951;29;20305;-69
2023/05/04 11:52:45;;;;;;;;;;;18.10;96.60;;;;;;4899514;29;19927;-70
2023/05/04 11:55:12;;;;;;;;;;;18.20;96.60;;;;;;4882875;29;19927;-68
2023/05/04 11:57:38;;;;;;;;;;;18.10;96.50;;;;;;4883119;29;19963;-70
2023/05/04 12:00:04;;;;;;;;;;;18.20;96.80;;;;;;4899452;29;19927;-69
2023/05/04 12:02:30;;;;;;;;;;;18.30;97.00;;;;;;4913772;29;19932;-68
2023/05/04 12:04:56;;;;;;;;;;;18.30;96.40;;;;;;4899586;29;19983;-71
2023/05/04 12:07:21;;;;;;;;;;;18.30;96.30;;;;;;4913463;29;20243;-68
2023/05/04 12:09:48;;;;;;;;;;;18.30;96.30;;;;;;4882966;29;19932;-67
2023/05/04 12:12:14;;;;;;;;;;;18.20;95.90;;;;;;4899050;29;19928;-68
2023/05/04 12:14:53;;;;;;;;;;;18.30;96.20;;;;;;4899394;29;19928;-70
2023/05/04 12:17:22;;;;;;;;;;;18.20;96.30;;;;;;4898562;29;20286;-68
2023/05/04 12:19:55;;;;;;;;;;;18.20;95.20;;;;;;4898537;29;19931;-71
2023/05/04 12:22:34;;;;;;;;;;;18.20;94.90;;;;;;4898227;29;20014;-69
2023/05/04 12:25:00;;;;;;;;;;;18.20;95.30;;;;;;4898314;29;19928;-70
2023/05/04 12:27:26;;;;;;;;;;;18.20;95.40;;;;;;4899096;29;19928;-68
2023/05/04 12:29:51;;;;;;;;;;;18.10;95.20;;;;;;4899363;29;19927;-68
2023/05/04 12:32:17;;;;;;;;;;;18.10;95.50;;;;;;4898892;29;20417;-68
2023/05/04 12:34:43;;;;;;;;;;;18.10;95.30;;;;;;4899281;29;19927;-69
2023/05/04 12:37:10;;;;;;;;;;;18.10;95.30;;;;;;4897945;29;19934;-69
2023/05/04 12:39:36;;;;;;;;;;;18.10;95.40;;;;;;4898982;29;20079;-70
2023/05/04 12:42:03;;;;;;;;;;;18.10;95.50;;;;;;4899233;29;19935;-69
2023/05/04 12:44:29;;;;;;;;;;;18.10;95.70;;;;;;4898739;29;19938;-70
2023/05/04 12:46:55;;;;;;;;;;;18.20;95.30;;;;;;4899142;29;20354;-73
2023/05/04 12:49:20;;;;;;;;;;;18.30;95.00;;;;;;4898234;29;19979;-69
2023/05/04 12:51:46;;;;;;;;;;;18.20;95.50;;;;;;4881969;29;19928;-68
2023/05/04 12:54:12;;;;;;;;;;;18.30;95.00;;;;;;4898800;29;19927;-68
2023/05/04 12:56:38;;;;;;;;;;;18.30;94.80;;;;;;4898778;29;20018;-68
2023/05/04 12:59:04;;;;;;;;;;;18.30;94.60;;;;;;4898668;29;19934;-68
2023/05/04 13:01:29;;;;;;;;;;;18.30;94.80;;;;;;4897600;29;19931;-69
2023/05/04 13:03:55;;;;;;;;;;;18.30;94.60;;;;;;4898705;29;19927;-71
2023/05/04 13:06:21;;;;;;;;;;;18.30;94.20;;;;;;4898687;29;20307;-71
2023/05/04 13:08:47;;;;;;;;;;;18.40;94.30;;;;;;4898656;29;20301;-70
2023/05/04 13:11:14;;;;;;;;;;;18.40;94.50;;;;;;4898672;29;19927;-70
2023/05/04 13:13:40;;;;;;;;;;;18.50;93.90;;;;;;4896754;29;20064;-71
2023/05/04 13:16:05;;;;;;;;;;;18.60;94.40;;;;;;4898313;29;20022;-70
2023/05/04 13:18:31;;;;;;;;;;;18.60;94.60;;;;;;4897025;29;19938;-70
2023/05/04 13:20:57;;;;;;;;;;;18.70;94.50;;;;;;4898308;29;20055;-70
2023/05/04 13:23:23;;;;;;;;;;;18.60;94.00;;;;;;4898051;29;19927;-70
2023/05/04 13:25:49;;;;;;;;;;;18.60;94.30;;;;;;4898092;29;19939;-72
2023/05/04 13:28:15;;;;;;;;;;;18.60;94.00;;;;;;4898256;29;19935;-72
2023/05/04 13:30:41;;;;;;;;;;;18.60;94.20;;;;;;4897296;29;19927;-70
2023/05/04 13:33:06;;;;;;;;;;;18.60;93.70;;;;;;4897936;29;20038;-71
2023/05/04 13:35:32;;;;;;;;;;;18.60;94.10;;;;;;4896656;29;19970;-70
2023/05/04 13:37:58;;;;;;;;;;;18.60;93.90;;;;;;4912441;29;19939;-70
2023/05/04 13:40:24;;;;;;;;;;;18.60;94.10;;;;;;4898016;29;19927;-71
2023/05/04 13:42:49;;;;;;;;;;;18.60;94.00;;;;;;4905426;29;19928;-70
2023/05/04 13:45:15;;;;;;;;;;;18.60;93.90;;;;;;4898807;29;19983;-71
2023/05/04 13:47:40;;;;;;;;;;;18.60;93.70;;;;;;4897341;29;19983;-72
2023/05/04 13:50:06;;;;;;;;;;;18.60;93.80;;;;;;4897846;29;19953;-70
2023/05/04 13:52:32;;;;;;;;;;;18.60;94.00;;;;;;4897592;29;19928;-70
2023/05/04 13:54:58;;;;;;;;;;;18.60;94.00;;;;;;4897928;29;19938;-70
2023/05/04 13:57:25;;;;;;;;;;;18.70;93.90;;;;;;4897543;29;20312;-68
2023/05/04 13:59:51;;;;;;;;;;;18.70;93.50;;;;;;4880917;29;20385;-72
2023/05/04 14:02:17;;;;;;;;;;;18.80;93.40;;;;;;4896836;29;19935;-70
2023/05/04 14:04:43;;;;;;;;;;;18.90;93.50;;;;;;4897346;29;19927;-71
2023/05/04 14:07:09;;;;;;;;;;;19.00;93.10;;;;;;4912614;29;20366;-69
2023/05/04 14:09:35;;;;;;;;;;;19.00;93.20;;;;;;4896388;29;19987;-70
2023/05/04 14:12:01;;;;;;;;;;;19.20;93.40;;;;;;4912257;29;20372;-70
2023/05/04 14:14:27;;;;;;;;;;;19.30;93.50;;;;;;4895928;29;20059;-69
2023/05/04 14:16:53;;;;;;;;;;;19.30;93.20;;;;;;4896625;29;20022;-71
2023/05/04 14:19:18;;;;;;;;;;;19.40;93.70;;;;;;4897739;29;19935;-72